createdAt,value
2019-04-14T00:01:21.539Z,5.50
2019-04-14T00:03:39.047Z,5.50
2019-04-14T00:05:34.489Z,5.50
2019-04-14T00:07:29.861Z,5.50
2019-04-14T00:09:25.287Z,5.40
2019-04-14T00:11:21.186Z,5.40
2019-04-14T00:13:17.387Z,5.40
2019-04-14T00:15:27.185Z,5.40
2019-04-14T00:17:08.914Z,5.30
2019-04-14T00:19:04.423Z,5.30
2019-04-14T00:20:59.998Z,5.30
2019-04-14T00:22:55.288Z,5.30
2019-04-14T00:24:51.014Z,5.20
2019-04-14T00:26:46.694Z,5.20
2019-04-14T00:28:42.600Z,5.20
2019-04-14T00:30:38.239Z,5.20
2019-04-14T00:32:35.503Z,5.20
2019-04-14T00:34:39.780Z,5.10
2019-04-14T00:36:50.248Z,5.10
2019-04-14T00:38:48.090Z,5.10
2019-04-14T00:40:54.008Z,5.20
2019-04-14T00:42:56.668Z,5.20
2019-04-14T00:44:55.937Z,5.10
2019-04-14T00:46:53.912Z,5.10
2019-04-14T00:48:49.732Z,5.10
2019-04-14T00:50:45.243Z,5.20
2019-04-14T00:52:39.995Z,5.10
2019-04-14T00:54:34.625Z,5.10
2019-04-14T00:56:30.039Z,5.10
2019-04-14T00:58:25.740Z,5.20
2019-04-14T01:00:21.892Z,5.10
2019-04-14T01:02:16.682Z,5.10
2019-04-14T01:04:12.224Z,5.10
2019-04-14T01:06:07.655Z,5.00
2019-04-14T01:08:03.123Z,5.00
2019-04-14T01:09:59.603Z,5.00
2019-04-14T01:11:53.790Z,5.00
2019-04-14T01:13:48.629Z,5.00
2019-04-14T01:15:53.703Z,5.00
2019-04-14T01:17:39.300Z,4.90
2019-04-14T01:19:35.250Z,4.90
2019-04-14T01:21:30.746Z,4.90
2019-04-14T01:23:26.033Z,4.90
2019-04-14T01:25:21.529Z,4.80
2019-04-14T01:27:16.770Z,4.80
2019-04-14T01:29:12.199Z,4.80
2019-04-14T01:31:07.566Z,4.80
2019-04-14T01:33:03.272Z,4.80
2019-04-14T01:35:00.981Z,4.80
2019-04-14T01:36:56.143Z,4.80
2019-04-14T01:38:51.351Z,4.70
2019-04-14T01:40:46.718Z,4.70
2019-04-14T01:42:42.622Z,4.70
2019-04-14T01:44:37.360Z,4.70
2019-04-14T01:46:33.986Z,4.70
2019-04-14T01:48:28.025Z,4.70
2019-04-14T01:50:29.894Z,4.70
2019-04-14T01:52:50.165Z,4.70
2019-04-14T01:55:13.347Z,4.70
2019-04-14T01:57:32.907Z,4.80
2019-04-14T01:59:28.358Z,4.70
2019-04-14T02:01:26.090Z,4.70
2019-04-14T02:03:21.703Z,4.70
2019-04-14T02:05:16.816Z,4.70
2019-04-14T02:07:12.326Z,4.70
2019-04-14T02:09:09.732Z,4.80
2019-04-14T02:11:03.654Z,4.70
2019-04-14T02:12:58.471Z,4.80
2019-04-14T02:14:54.095Z,4.70
2019-04-14T02:16:53.556Z,4.70
2019-04-14T02:18:47.443Z,4.70
2019-04-14T02:20:42.759Z,4.70
2019-04-14T02:22:37.578Z,4.70
2019-04-14T02:24:33.734Z,4.70
2019-04-14T02:26:28.680Z,4.70
2019-04-14T02:28:22.726Z,4.70
2019-04-14T02:30:20.832Z,4.70
2019-04-14T02:32:44.643Z,4.70
2019-04-14T02:36:36.078Z,4.70
2019-04-14T02:40:27.342Z,4.60
2019-04-14T02:44:27.100Z,4.60
2019-04-14T02:48:15.164Z,4.50
2019-04-14T02:50:06.597Z,4.50
2019-04-14T02:51:58.327Z,4.50
2019-04-14T02:55:48.570Z,4.50
2019-04-14T02:57:45.053Z,4.40
2019-04-14T02:59:44.655Z,4.40
2019-04-14T03:01:38.754Z,4.40
2019-04-14T03:03:35.896Z,4.40
2019-04-14T03:05:26.955Z,4.40
2019-04-14T03:07:38.449Z,4.40
2019-04-14T03:09:30.497Z,4.40
2019-04-14T03:11:20.794Z,4.40
2019-04-14T03:13:15.893Z,4.40
2019-04-14T03:17:25.120Z,4.50
2019-04-14T03:19:14.035Z,4.50
2019-04-14T03:21:34.535Z,4.50
2019-04-14T03:23:46.396Z,4.50
2019-04-14T03:25:34.167Z,4.50
2019-04-14T03:27:49.885Z,4.50
2019-04-14T03:29:47.837Z,4.50
2019-04-14T03:32:02.451Z,4.50
2019-04-14T03:39:27.220Z,4.50
2019-04-14T03:41:24.104Z,4.50
2019-04-14T03:43:19.714Z,4.50
2019-04-14T03:45:14.286Z,4.50
2019-04-14T03:47:06.876Z,4.50
2019-04-14T03:49:11.225Z,4.50
2019-04-14T03:51:05.860Z,4.40
2019-04-14T03:52:56.128Z,4.40
2019-04-14T03:54:46.625Z,4.40
2019-04-14T03:56:49.030Z,4.40
2019-04-14T03:58:44.433Z,4.40
2019-04-14T04:00:40.019Z,4.40
2019-04-14T04:02:35.829Z,4.50
2019-04-14T04:04:31.601Z,4.40
2019-04-14T04:06:26.986Z,4.40
2019-04-14T04:08:22.370Z,4.40
2019-04-14T04:10:21.064Z,4.40
2019-04-14T04:12:16.039Z,4.40
2019-04-14T04:14:11.765Z,4.40
2019-04-14T04:16:18.750Z,4.40
2019-04-14T04:18:17.999Z,4.40
2019-04-14T04:20:31.369Z,4.40
2019-04-14T04:22:52.223Z,4.40
2019-04-14T04:25:00.895Z,4.40
2019-04-14T04:27:17.966Z,4.40
2019-04-14T04:29:35.123Z,4.40
2019-04-14T04:31:39.574Z,4.40
2019-04-14T04:33:59.199Z,4.40
2019-04-14T04:35:58.404Z,4.40
2019-04-14T04:38:05.174Z,4.40
2019-04-14T04:40:04.966Z,4.40
2019-04-14T04:42:00.435Z,4.40
2019-04-14T04:43:56.101Z,4.40
2019-04-14T04:45:51.601Z,4.40
2019-04-14T04:47:47.016Z,4.40
2019-04-14T04:49:42.494Z,4.40
2019-04-14T04:51:37.868Z,4.30
2019-04-14T04:53:33.119Z,4.40
2019-04-14T04:55:28.689Z,4.30
2019-04-14T04:57:24.432Z,4.40
2019-04-14T04:59:19.157Z,4.40
2019-04-14T05:01:14.494Z,4.40
2019-04-14T05:03:10.023Z,4.40
2019-04-14T05:05:25.276Z,4.40
2019-04-14T05:07:19.375Z,4.40
2019-04-14T05:09:21.204Z,4.40
2019-04-14T05:11:27.318Z,4.50
2019-04-14T05:13:29.239Z,4.50
2019-04-14T05:15:42.907Z,4.50
2019-04-14T05:17:38.785Z,4.50
2019-04-14T05:19:35.943Z,4.50
2019-04-14T05:21:29.889Z,4.60
2019-04-14T05:23:25.644Z,4.60
2019-04-14T05:25:21.571Z,4.60
2019-04-14T05:27:16.665Z,4.70
2019-04-14T05:29:12.404Z,4.70
2019-04-14T05:31:07.659Z,4.80
2019-04-14T05:33:03.057Z,4.80
2019-04-14T05:34:58.697Z,4.80
2019-04-14T05:36:54.199Z,4.80
2019-04-14T05:38:49.477Z,4.80
2019-04-14T05:40:45.060Z,4.80
2019-04-14T05:42:40.648Z,4.80
2019-04-14T05:44:36.078Z,4.90
2019-04-14T05:46:31.639Z,4.90
2019-04-14T05:48:27.135Z,4.90
2019-04-14T05:50:22.681Z,5.00
2019-04-14T05:52:18.503Z,5.00
2019-04-14T05:54:14.131Z,5.00
2019-04-14T05:56:09.891Z,5.00
2019-04-14T05:58:05.747Z,5.10
2019-04-14T05:59:59.777Z,5.20
2019-04-14T06:01:54.652Z,5.20
2019-04-14T06:03:49.702Z,5.30
2019-04-14T06:05:45.020Z,5.40
2019-04-14T06:07:39.186Z,5.50
2019-04-14T06:09:33.868Z,5.50
2019-04-14T06:11:28.530Z,5.60
2019-04-14T06:13:23.119Z,5.70
2019-04-14T06:15:17.659Z,5.80
2019-04-14T06:17:11.734Z,5.80
2019-04-14T06:19:07.461Z,5.80
2019-04-14T06:21:01.711Z,5.90
2019-04-14T06:22:57.926Z,5.90
2019-04-14T06:24:52.082Z,6.00
2019-04-14T06:26:46.285Z,6.00
2019-04-14T06:28:40.821Z,6.00
2019-04-14T06:31:04.055Z,6.00
2019-04-14T06:33:00.526Z,6.00
2019-04-14T06:35:20.106Z,6.00
2019-04-14T06:37:20.374Z,6.00
2019-04-14T06:39:30.035Z,5.90
2019-04-14T06:41:24.898Z,5.80
2019-04-14T06:43:19.803Z,5.90
2019-04-14T06:45:14.582Z,5.80
2019-04-14T06:47:09.451Z,5.80
2019-04-14T06:49:04.359Z,5.80
2019-04-14T06:50:59.113Z,5.80
2019-04-14T06:52:53.673Z,5.70
2019-04-14T06:54:48.742Z,5.70
2019-04-14T06:56:43.756Z,5.80
2019-04-14T06:58:39.347Z,5.90
2019-04-14T07:00:34.048Z,6.00
2019-04-14T07:02:28.523Z,6.20
2019-04-14T07:04:23.019Z,6.40
2019-04-14T07:06:18.792Z,6.60
2019-04-14T07:08:13.717Z,6.80
2019-04-14T07:10:08.519Z,6.90
2019-04-14T07:12:04.626Z,7.00
2019-04-14T07:13:59.344Z,7.10
2019-04-14T07:15:54.134Z,7.20
2019-04-14T07:17:48.851Z,7.20
2019-04-14T07:19:43.280Z,7.30
2019-04-14T07:21:38.027Z,7.40
2019-04-14T07:23:32.755Z,7.50
2019-04-14T07:25:27.574Z,7.50
2019-04-14T07:27:21.956Z,7.60
2019-04-14T07:29:16.068Z,7.60
2019-04-14T07:31:39.164Z,7.60
2019-04-14T07:33:51.324Z,7.50
2019-04-14T07:36:04.990Z,7.50
2019-04-14T07:38:05.395Z,7.60
2019-04-14T07:40:18.557Z,7.60
2019-04-14T07:42:20.638Z,7.60
2019-04-14T07:44:32.940Z,7.60
2019-04-14T07:46:40.403Z,7.60
2019-04-14T07:48:46.752Z,7.80
2019-04-14T07:51:05.576Z,7.90
2019-04-14T07:53:20.682Z,8.00
2019-04-14T07:55:40.765Z,8.40
2019-04-14T07:57:46.857Z,8.60
2019-04-14T07:59:51.349Z,8.80
2019-04-14T08:01:59.483Z,9.00
2019-04-14T08:04:22.358Z,9.10
2019-04-14T08:06:16.491Z,9.20
2019-04-14T08:08:10.662Z,8.90
2019-04-14T08:10:07.120Z,8.90
2019-04-14T08:12:02.009Z,8.80
2019-04-14T08:13:55.978Z,8.60
2019-04-14T08:15:50.551Z,8.50
2019-04-14T08:17:45.354Z,8.40
2019-04-14T08:19:39.945Z,8.40
2019-04-14T08:21:34.595Z,8.60
2019-04-14T08:23:28.990Z,8.70
2019-04-14T08:25:23.629Z,8.70
2019-04-14T08:27:17.958Z,8.90
2019-04-14T08:29:12.654Z,8.90
2019-04-14T08:31:06.866Z,9.00
2019-04-14T08:33:01.451Z,9.10
2019-04-14T08:34:56.171Z,9.10
2019-04-14T08:36:50.934Z,9.10
2019-04-14T08:38:45.491Z,9.20
2019-04-14T08:40:39.609Z,9.30
2019-04-14T08:42:53.494Z,9.40
2019-04-14T08:44:50.099Z,9.50
2019-04-14T08:47:03.002Z,9.60
2019-04-14T08:49:19.672Z,9.90
2019-04-14T08:51:21.827Z,10.00
2019-04-14T08:53:21.977Z,10.00
2019-04-14T08:55:34.573Z,9.80
2019-04-14T08:57:38.292Z,9.80
2019-04-14T08:59:48.339Z,9.80
2019-04-14T09:02:00.950Z,9.80
2019-04-14T09:04:06.361Z,9.80
2019-04-14T09:06:09.505Z,9.90
2019-04-14T09:08:18.582Z,10.00
2019-04-14T09:10:18.887Z,10.40
2019-04-14T09:12:18.330Z,10.90
2019-04-14T09:14:13.258Z,11.10
2019-04-14T09:16:08.236Z,11.40
2019-04-14T09:18:02.958Z,11.70
2019-04-14T09:19:57.211Z,11.90
2019-04-14T09:21:51.841Z,12.10
2019-04-14T09:23:46.822Z,12.20
2019-04-14T09:25:41.271Z,12.20
2019-04-14T09:27:36.138Z,12.10
2019-04-14T09:29:31.053Z,12.10
2019-04-14T09:31:25.567Z,11.90
2019-04-14T09:33:20.181Z,11.90
2019-04-14T09:35:14.522Z,11.90
2019-04-14T09:37:09.026Z,12.00
2019-04-14T09:39:04.949Z,11.90
2019-04-14T09:41:00.702Z,11.90
2019-04-14T09:42:57.662Z,11.80
2019-04-14T09:44:51.862Z,11.60
2019-04-14T09:46:45.789Z,11.50
2019-04-14T09:48:42.782Z,11.40
2019-04-14T09:50:36.017Z,11.40
2019-04-14T09:52:32.420Z,11.40
2019-04-14T09:54:27.163Z,11.10
2019-04-14T09:56:21.951Z,10.90
2019-04-14T09:58:16.940Z,10.90
2019-04-14T10:00:13.750Z,11.00
2019-04-14T10:02:07.915Z,11.00
2019-04-14T10:04:01.894Z,11.20
2019-04-14T10:05:57.035Z,11.30
2019-04-14T10:07:52.008Z,11.30
2019-04-14T10:09:46.481Z,11.10
2019-04-14T10:11:48.423Z,11.10
2019-04-14T10:13:37.158Z,11.30
2019-04-14T10:15:32.080Z,11.30
2019-04-14T10:17:26.684Z,11.70
2019-04-14T10:19:21.060Z,11.90
2019-04-14T10:21:17.512Z,11.90
2019-04-14T10:23:12.371Z,11.90
2019-04-14T10:25:07.019Z,11.80
2019-04-14T10:27:02.105Z,11.80
2019-04-14T10:28:56.264Z,11.70
2019-04-14T10:30:50.482Z,11.60
2019-04-14T10:32:45.274Z,11.70
2019-04-14T10:34:40.116Z,11.80
2019-04-14T10:36:34.887Z,11.80
2019-04-14T10:38:29.894Z,11.80
2019-04-14T10:40:24.015Z,11.50
2019-04-14T10:42:18.077Z,11.40
2019-04-14T10:44:13.255Z,11.30
2019-04-14T10:46:07.980Z,11.10
2019-04-14T10:48:02.620Z,11.00
2019-04-14T10:49:56.829Z,11.10
2019-04-14T10:51:55.139Z,11.10
2019-04-14T10:53:50.056Z,11.10
2019-04-14T10:55:44.837Z,11.20
2019-04-14T10:57:39.116Z,11.40
2019-04-14T10:59:33.811Z,11.60
2019-04-14T11:01:28.780Z,11.70
2019-04-14T11:03:23.708Z,11.90
2019-04-14T11:05:18.521Z,12.00
2019-04-14T11:07:19.812Z,11.80
2019-04-14T11:09:15.820Z,11.70
2019-04-14T11:11:11.054Z,11.50
2019-04-14T11:13:05.791Z,11.50
2019-04-14T11:15:00.640Z,11.50
2019-04-14T11:16:55.240Z,11.60
2019-04-14T11:18:49.644Z,11.60
2019-04-14T11:20:44.567Z,11.60
2019-04-14T11:22:39.509Z,11.40
2019-04-14T11:24:34.252Z,11.40
2019-04-14T11:26:28.450Z,11.30
2019-04-14T11:28:23.159Z,11.20
2019-04-14T11:30:20.508Z,11.20
2019-04-14T11:32:44.803Z,11.20
2019-04-14T11:34:56.477Z,11.10
2019-04-14T11:37:07.625Z,11.20
2019-04-14T11:39:08.508Z,11.30
2019-04-14T11:41:06.692Z,10.90
2019-04-14T11:43:01.740Z,10.80
2019-04-14T11:44:56.131Z,10.50
2019-04-14T11:46:50.924Z,10.30
2019-04-14T11:48:46.194Z,10.30
2019-04-14T11:50:40.390Z,10.40
2019-04-14T11:52:35.765Z,10.50
2019-04-14T11:54:30.635Z,10.40
2019-04-14T11:56:25.248Z,10.50
2019-04-14T11:58:19.754Z,10.60
2019-04-14T12:00:27.140Z,10.70
2019-04-14T12:02:26.600Z,10.70
2019-04-14T12:04:36.707Z,10.70
2019-04-14T12:06:47.729Z,10.70
2019-04-14T12:08:54.730Z,10.80
2019-04-14T12:10:49.394Z,10.90
2019-04-14T12:12:43.398Z,10.90
2019-04-14T12:14:38.305Z,10.90
2019-04-14T12:16:32.536Z,10.80
2019-04-14T12:18:27.943Z,10.70
2019-04-14T12:20:21.997Z,10.60
2019-04-14T12:22:15.999Z,10.60
2019-04-14T12:24:10.930Z,10.70
2019-04-14T12:26:06.081Z,10.80
2019-04-14T12:28:01.203Z,10.80
2019-04-14T12:29:56.665Z,10.80
2019-04-14T12:31:51.407Z,11.00
2019-04-14T12:33:45.976Z,11.20
2019-04-14T12:35:40.600Z,11.20
2019-04-14T12:37:35.263Z,11.20
2019-04-14T12:39:29.885Z,11.10
2019-04-14T12:41:40.901Z,11.00
2019-04-14T12:43:54.003Z,10.90
2019-04-14T12:46:25.618Z,10.80
2019-04-14T12:48:42.345Z,10.60
2019-04-14T12:50:40.202Z,10.60
2019-04-14T12:52:35.030Z,10.60
2019-04-14T12:54:29.715Z,10.60
2019-04-14T12:56:26.528Z,10.80
2019-04-14T12:58:24.998Z,10.80
2019-04-14T13:00:38.658Z,10.90
2019-04-14T13:02:35.815Z,10.80
2019-04-14T13:04:30.745Z,10.90
2019-04-14T13:06:24.974Z,10.80
2019-04-14T13:08:19.275Z,10.90
2019-04-14T13:10:14.714Z,11.10
2019-04-14T13:12:10.490Z,11.20
2019-04-14T13:14:05.408Z,11.20
2019-04-14T13:15:59.546Z,11.10
2019-04-14T13:17:54.299Z,11.00
2019-04-14T13:19:49.129Z,10.90
2019-04-14T13:21:43.193Z,10.70
2019-04-14T13:23:37.716Z,10.70
2019-04-14T13:25:32.838Z,10.60
2019-04-14T13:27:26.907Z,10.60
2019-04-14T13:29:21.882Z,10.50
2019-04-14T13:31:16.025Z,10.50
2019-04-14T13:33:10.690Z,10.40
2019-04-14T13:35:05.247Z,10.30
2019-04-14T13:36:59.905Z,10.30
2019-04-14T13:38:53.964Z,10.40
2019-04-14T13:40:48.445Z,10.40
2019-04-14T13:42:42.670Z,10.30
2019-04-14T13:44:37.284Z,10.40
2019-04-14T13:46:32.031Z,10.50
2019-04-14T13:48:26.982Z,10.60
2019-04-14T13:50:21.283Z,10.70
2019-04-14T13:52:16.218Z,10.80
2019-04-14T13:54:10.975Z,10.70
2019-04-14T13:56:05.809Z,10.80
2019-04-14T13:58:00.554Z,10.70
2019-04-14T13:59:54.988Z,10.70
2019-04-14T14:01:49.542Z,10.60
2019-04-14T14:03:44.287Z,10.60
2019-04-14T14:05:39.202Z,10.50
2019-04-14T14:07:33.063Z,10.50
2019-04-14T14:09:27.779Z,10.50
2019-04-14T14:11:44.800Z,10.60
2019-04-14T14:13:44.583Z,10.70
2019-04-14T14:16:16.161Z,10.80
2019-04-14T14:18:38.168Z,10.80
2019-04-14T14:20:50.900Z,10.80
2019-04-14T14:23:04.587Z,10.90
2019-04-14T14:25:10.062Z,10.90
2019-04-14T14:27:04.728Z,10.90
2019-04-14T14:28:58.862Z,10.80
2019-04-14T14:30:53.593Z,10.70
2019-04-14T14:32:48.765Z,10.60
2019-04-14T14:34:43.868Z,10.60
2019-04-14T14:36:38.254Z,10.50
2019-04-14T14:38:32.848Z,10.60
2019-04-14T14:40:27.001Z,10.60
2019-04-14T14:42:21.490Z,10.60
2019-04-14T14:44:16.393Z,10.50
2019-04-14T14:46:37.087Z,10.70
2019-04-14T14:48:42.198Z,10.90
2019-04-14T14:50:43.314Z,11.10
2019-04-14T14:52:39.731Z,11.30
2019-04-14T14:54:34.375Z,11.40
2019-04-14T14:56:29.063Z,11.40
2019-04-14T14:58:23.360Z,11.30
2019-04-14T15:00:46.082Z,11.30
2019-04-14T15:02:41.543Z,11.30
2019-04-14T15:04:36.185Z,11.30
2019-04-14T15:06:30.578Z,11.40
2019-04-14T15:08:25.271Z,11.40
2019-04-14T15:10:19.758Z,11.40
2019-04-14T15:12:14.377Z,11.40
2019-04-14T15:14:08.931Z,11.50
2019-04-14T15:16:03.374Z,11.60
2019-04-14T15:17:57.647Z,11.60
2019-04-14T15:19:51.788Z,11.80
2019-04-14T15:21:45.988Z,11.80
2019-04-14T15:23:41.100Z,11.60
2019-04-14T15:25:35.064Z,11.60
2019-04-14T15:27:29.020Z,11.50
2019-04-14T15:29:24.093Z,11.50
2019-04-14T15:31:18.375Z,11.50
2019-04-14T15:33:13.377Z,11.50
2019-04-14T15:35:09.573Z,11.50
2019-04-14T15:37:04.467Z,11.50
2019-04-14T15:39:00.138Z,11.40
2019-04-14T15:40:55.103Z,11.30
2019-04-14T15:42:50.018Z,11.10
2019-04-14T15:44:44.227Z,11.10
2019-04-14T15:46:38.818Z,11.10
2019-04-14T15:48:33.610Z,11.20
2019-04-14T15:50:28.980Z,11.10
2019-04-14T15:52:23.488Z,11.20
2019-04-14T15:54:17.412Z,11.20
2019-04-14T15:56:17.021Z,11.00
2019-04-14T15:58:29.049Z,11.00
2019-04-14T16:00:42.042Z,10.90
2019-04-14T16:02:52.428Z,10.90
2019-04-14T16:04:59.285Z,10.80
2019-04-14T16:07:12.276Z,10.70
2019-04-14T16:09:17.562Z,10.60
2019-04-14T16:11:17.338Z,10.50
2019-04-14T16:13:40.441Z,10.50
2019-04-14T16:15:54.009Z,10.50
2019-04-14T16:17:53.700Z,10.40
2019-04-14T16:19:52.840Z,10.40
2019-04-14T16:21:46.612Z,10.30
2019-04-14T16:23:50.401Z,10.30
2019-04-14T16:25:51.983Z,10.40
2019-04-14T16:28:06.275Z,10.30
2019-04-14T16:30:18.965Z,10.20
2019-04-14T16:32:33.350Z,10.20
2019-04-14T16:34:35.018Z,10.10
2019-04-14T16:36:29.061Z,10.00
2019-04-14T16:38:24.300Z,10.00
2019-04-14T16:40:19.231Z,10.00
2019-04-14T16:42:14.351Z,10.00
2019-04-14T16:44:08.909Z,10.00
2019-04-14T16:46:03.011Z,10.00
2019-04-14T16:47:57.889Z,10.00
2019-04-14T16:49:52.757Z,10.00
2019-04-14T16:52:01.224Z,10.00
2019-04-14T16:54:03.002Z,9.90
2019-04-14T16:56:11.852Z,9.80
2019-04-14T16:58:34.418Z,9.80
2019-04-14T17:00:37.133Z,9.70
2019-04-14T17:02:30.821Z,9.70
2019-04-14T17:04:25.874Z,9.70
2019-04-14T17:06:19.759Z,9.60
2019-04-14T17:08:14.494Z,9.50
2019-04-14T17:10:08.834Z,9.50
2019-04-14T17:12:04.259Z,9.40
2019-04-14T17:14:05.760Z,9.30
2019-04-14T17:16:25.194Z,9.30
2019-04-14T17:18:34.283Z,9.20
2019-04-14T17:20:50.533Z,9.20
2019-04-14T17:22:53.114Z,9.10
2019-04-14T17:25:09.845Z,9.10
2019-04-14T17:27:13.946Z,9.00
2019-04-14T17:29:26.375Z,9.00
2019-04-14T17:31:24.447Z,9.00
2019-04-14T17:33:31.602Z,8.90
2019-04-14T17:35:36.754Z,8.90
2019-04-14T17:37:52.123Z,8.90
2019-04-14T17:39:51.528Z,8.80
2019-04-14T17:42:04.199Z,8.80
2019-04-14T17:44:10.314Z,8.80
2019-04-14T17:46:23.435Z,8.80
2019-04-14T17:48:26.290Z,8.70
2019-04-14T17:50:55.584Z,8.70
2019-04-14T17:52:56.510Z,8.70
2019-04-14T17:55:10.147Z,8.70
2019-04-14T17:57:30.548Z,8.70
2019-04-14T17:59:28.919Z,8.60
2019-04-14T18:01:33.980Z,8.60
2019-04-14T18:03:35.308Z,8.60
2019-04-14T18:05:34.128Z,8.60
2019-04-14T18:07:50.734Z,8.50
2019-04-14T18:09:57.767Z,8.50
2019-04-14T18:12:01.064Z,8.50
2019-04-14T18:14:07.605Z,8.60
2019-04-14T18:16:21.721Z,8.50
2019-04-14T18:18:46.982Z,8.50
2019-04-14T18:20:43.695Z,8.50
2019-04-14T18:22:38.147Z,8.50
2019-04-14T18:24:42.393Z,8.50
2019-04-14T18:26:27.784Z,8.50
2019-04-14T18:28:40.169Z,8.50
2019-04-14T18:30:40.758Z,8.40
2019-04-14T18:32:40.244Z,8.40
2019-04-14T18:34:49.315Z,8.40
2019-04-14T18:36:50.597Z,8.40
2019-04-14T18:39:14.666Z,8.40
2019-04-14T18:41:19.989Z,8.40
2019-04-14T18:43:36.778Z,8.40
2019-04-14T18:45:37.730Z,8.40
2019-04-14T18:47:42.447Z,8.40
2019-04-14T18:50:02.382Z,8.40
2019-04-14T18:52:31.378Z,8.40
2019-04-14T18:54:31.650Z,8.40
2019-04-14T18:56:43.474Z,8.40
2019-04-14T18:59:02.727Z,8.40
2019-04-14T19:01:04.751Z,8.40
2019-04-14T19:02:58.856Z,8.40
2019-04-14T19:04:53.695Z,8.40
2019-04-14T19:06:48.462Z,8.40
2019-04-14T19:08:43.395Z,8.40
2019-04-14T19:10:38.251Z,8.30
2019-04-14T19:13:03.819Z,8.40
2019-04-14T19:15:12.348Z,8.40
2019-04-14T19:17:26.239Z,8.40
2019-04-14T19:19:21.116Z,8.40
2019-04-14T19:21:21.182Z,8.40
2019-04-14T19:23:16.359Z,8.40
2019-04-14T19:25:11.232Z,8.40
2019-04-14T19:27:06.239Z,8.40
2019-04-14T19:29:00.848Z,8.40
2019-04-14T19:30:57.121Z,8.40
2019-04-14T19:32:52.075Z,8.30
2019-04-14T19:34:46.868Z,8.30
2019-04-14T19:36:41.327Z,8.30
2019-04-14T19:38:36.298Z,8.20
2019-04-14T19:40:30.941Z,8.20
2019-04-14T19:42:24.779Z,8.20
2019-04-14T19:44:19.099Z,8.20
2019-04-14T19:46:14.007Z,8.20
2019-04-14T19:48:08.310Z,8.20
2019-04-14T19:50:02.659Z,8.20
2019-04-14T19:51:56.744Z,8.20
2019-04-14T19:53:51.878Z,8.20
2019-04-14T19:55:45.939Z,8.20
2019-04-14T19:57:40.927Z,8.20
2019-04-14T19:59:35.463Z,8.20
2019-04-14T20:01:29.504Z,8.20
2019-04-14T20:03:24.123Z,8.20
2019-04-14T20:05:18.675Z,8.20
2019-04-14T20:07:13.722Z,8.20
2019-04-14T20:09:08.767Z,8.20
2019-04-14T20:11:03.486Z,8.10
2019-04-14T20:12:58.649Z,8.10
2019-04-14T20:14:53.259Z,8.10
2019-04-14T20:17:09.982Z,8.10
2019-04-14T20:19:21.531Z,8.10
2019-04-14T20:21:38.832Z,8.10
2019-04-14T20:23:53.394Z,8.10
2019-04-14T20:26:22.152Z,8.10
2019-04-14T20:28:24.623Z,8.10
2019-04-14T20:30:27.768Z,8.10
2019-04-14T20:32:25.578Z,8.10
2019-04-14T20:34:19.933Z,8.10
2019-04-14T20:36:14.751Z,8.00
2019-04-14T20:38:09.567Z,8.00
2019-04-14T20:40:04.412Z,8.00
2019-04-14T20:41:59.304Z,8.00
2019-04-14T20:43:53.950Z,8.00
2019-04-14T20:45:48.649Z,8.00
2019-04-14T20:47:43.530Z,8.00
2019-04-14T20:49:38.233Z,7.90
2019-04-14T20:51:33.276Z,7.90
2019-04-14T20:53:27.460Z,7.90
2019-04-14T20:55:22.210Z,7.90
2019-04-14T20:57:17.232Z,7.90
2019-04-14T20:59:11.801Z,7.90
2019-04-14T21:01:08.736Z,7.80
2019-04-14T21:03:19.668Z,7.80
2019-04-14T21:05:32.592Z,7.80
2019-04-14T21:07:45.170Z,7.80
2019-04-14T21:10:07.579Z,7.80
2019-04-14T21:12:19.023Z,7.80
2019-04-14T21:14:26.674Z,7.80
2019-04-14T21:16:43.575Z,7.80
2019-04-14T21:18:41.896Z,7.80
2019-04-14T21:21:13.590Z,7.70
2019-04-14T21:23:14.529Z,7.70
2019-04-14T21:25:16.247Z,7.70
2019-04-14T21:27:16.194Z,7.70
2019-04-14T21:29:16.139Z,7.70
2019-04-14T21:31:25.760Z,7.60
2019-04-14T21:33:42.249Z,7.60
2019-04-14T21:35:52.191Z,7.60
2019-04-14T21:37:55.637Z,7.60
2019-04-14T21:40:15.766Z,7.50
2019-04-14T21:42:09.939Z,7.60
2019-04-14T21:44:05.070Z,7.50
2019-04-14T21:46:00.334Z,7.50
2019-04-14T21:47:55.136Z,7.50
2019-04-14T21:49:49.643Z,7.50
2019-04-14T21:52:02.393Z,7.50
2019-04-14T21:53:57.882Z,7.50
2019-04-14T21:55:52.027Z,7.50
2019-04-14T21:57:58.077Z,7.40
2019-04-14T22:00:23.493Z,7.40
2019-04-14T22:02:37.956Z,7.40
2019-04-14T22:04:50.348Z,7.30
2019-04-14T22:06:46.011Z,7.30
2019-04-14T22:08:45.813Z,7.30
2019-04-14T22:10:43.743Z,7.30
2019-04-14T22:12:38.223Z,7.20
2019-04-14T22:14:32.895Z,7.20
2019-04-14T22:16:27.806Z,7.20
2019-04-14T22:18:22.284Z,7.10
2019-04-14T22:20:17.232Z,7.10
2019-04-14T22:22:11.342Z,7.10
2019-04-14T22:24:06.215Z,7.10
2019-04-14T22:26:00.614Z,7.00
2019-04-14T22:27:54.453Z,7.00
2019-04-14T22:29:50.134Z,7.00
2019-04-14T22:31:44.360Z,7.00
2019-04-14T22:33:38.975Z,7.00
2019-04-14T22:35:33.459Z,7.00
2019-04-14T22:37:28.545Z,7.00
2019-04-14T22:39:23.244Z,7.00
2019-04-14T22:41:17.487Z,7.00
2019-04-14T22:43:12.610Z,6.90
2019-04-14T22:45:09.167Z,7.00
2019-04-14T22:47:04.212Z,6.90
2019-04-14T22:48:58.909Z,6.90
2019-04-14T22:50:53.140Z,6.90
2019-04-14T22:52:47.792Z,6.90
2019-04-14T22:54:42.410Z,6.90
2019-04-14T22:56:39.489Z,6.80
2019-04-14T22:58:33.498Z,6.80
2019-04-14T23:00:45.917Z,6.80
2019-04-14T23:02:55.078Z,6.80
2019-04-14T23:05:07.378Z,6.80
2019-04-14T23:07:19.383Z,6.80
2019-04-14T23:09:39.534Z,6.70
2019-04-14T23:11:59.217Z,6.70
2019-04-14T23:14:08.740Z,6.70
2019-04-14T23:16:17.129Z,6.70
2019-04-14T23:18:22.405Z,6.70
2019-04-14T23:20:38.665Z,6.60
2019-04-14T23:22:58.954Z,6.60
2019-04-14T23:24:53.587Z,6.60
2019-04-14T23:26:52.806Z,6.60
2019-04-14T23:28:44.218Z,6.50
2019-04-14T23:30:39.731Z,6.50
2019-04-14T23:32:34.067Z,6.50
2019-04-14T23:34:28.559Z,6.50
2019-04-14T23:36:23.183Z,6.50
2019-04-14T23:38:17.622Z,6.50
2019-04-14T23:40:14.290Z,6.50
2019-04-14T23:42:08.513Z,6.50
2019-04-14T23:44:03.126Z,6.50
2019-04-14T23:45:58.404Z,6.40
2019-04-14T23:47:52.968Z,6.40
2019-04-14T23:49:47.441Z,6.40
2019-04-14T23:51:41.623Z,6.40
2019-04-14T23:53:36.210Z,6.40
2019-04-14T23:55:31.211Z,6.40
2019-04-14T23:57:26.030Z,6.40
2019-04-14T23:59:20.732Z,6.40
